首页
METAR-TAF:

METAR-TAF

机场 :

恩贾梅纳国际机场

恩賈梅納, 乍得

纬度: 12-08N, 经度: 015-02E, 海拔: 295米

当前天气观测

该预报发布于50分钟前的08:00 UTC
风速4节,风向,在西南之间变化
温度 36°C
湿度 24%
气压 1008 hPa
能見度: 7000

METAR: FTTJ 230800Z 10004KT 100V220 7000 NSC 36/12 Q1008 NOSIG

时间: 09:50 (08:50 UTC)

预报

该预报发布于3小时和50分钟前的05:00 UTC
预报有效从23日的 06点(UTC)到 24日的 12点(UTC)
风速6节,风向西
能见度10公里或以上
1500米以下无云,无积雨云
短暂存在
从 23日的 07点(UTC)到 23日的 13点(UTC)
能見度: 4000
几率 30% :
短暂存在
从 23日的 15点(UTC)到 23日的 21点(UTC)
雷暴

TAF: FTTJ 230500Z 2306/2412 26006KT CAVOK TEMPO 2307/2313 4000 HZ PROB30 TEMPO 2315/2321 TS

超过4000个机场的气象观测和天气预报(METAR&TAF报告)。

可查询的气象台以黄色和红色小点在地图上表示。

将鼠标移到小点上方,可查看气象台名称。

然后点击查看天气观测和预报。

如需切换地图:点击带黑十字的绿色按钮放大地图;点击带横线的绿色按钮缩小地图;或者点击绿色箭头查看邻近地区的地图。


METAR-TAF: